createdAt,value
2018-09-10T00:00:03.269Z,92.71
2018-09-10T00:03:07.488Z,92.95
2018-09-10T00:06:12.420Z,92.98
2018-09-10T00:09:16.674Z,92.34
2018-09-10T00:12:20.872Z,91.72
2018-09-10T00:15:25.088Z,92.27
2018-09-10T00:18:29.291Z,92.43
2018-09-10T00:21:33.529Z,92.59
2018-09-10T00:24:37.737Z,91.72
2018-09-10T00:27:41.944Z,91.60
2018-09-10T00:30:46.144Z,91.46
2018-09-10T00:33:50.360Z,91.50
2018-09-10T00:36:54.570Z,91.41
2018-09-10T00:39:58.794Z,90.74
2018-09-10T00:43:02.997Z,91.09
2018-09-10T00:46:07.241Z,90.47
2018-09-10T00:49:11.491Z,90.54
2018-09-10T00:52:15.704Z,90.45
2018-09-10T00:55:19.922Z,89.82
2018-09-10T00:58:24.170Z,90.00
2018-09-10T01:01:28.377Z,89.42
2018-09-10T01:04:32.599Z,89.11
2018-09-10T01:07:36.824Z,89.73
2018-09-10T01:10:41.054Z,89.60
2018-09-10T01:13:45.272Z,89.44
2018-09-10T01:16:49.476Z,89.76
2018-09-10T01:19:54.337Z,89.73
2018-09-10T01:22:58.581Z,89.84
2018-09-10T01:26:03.580Z,89.46
2018-09-10T01:29:07.793Z,88.50
2018-09-10T01:32:12.037Z,88.75
2018-09-10T01:35:16.234Z,89.70
2018-09-10T01:38:20.457Z,89.11
2018-09-10T01:41:24.708Z,88.99
2018-09-10T01:44:28.925Z,89.15
2018-09-10T01:47:33.108Z,88.97
2018-09-10T01:50:37.309Z,89.40
2018-09-10T01:53:41.529Z,88.51
2018-09-10T01:56:45.733Z,88.76
2018-09-10T01:59:49.937Z,88.65
2018-09-10T02:02:54.345Z,87.93
2018-09-10T02:05:58.660Z,87.51
2018-09-10T02:09:02.868Z,88.02
2018-09-10T02:12:11.172Z,88.95
2018-09-10T02:15:15.413Z,88.20
2018-09-10T02:18:20.913Z,89.57
2018-09-10T02:21:25.137Z,88.63
2018-09-10T02:24:29.337Z,89.00
2018-09-10T02:27:33.619Z,88.99
2018-09-10T02:30:37.769Z,88.52
2018-09-10T02:33:42.027Z,88.94
2018-09-10T02:36:46.233Z,88.66
2018-09-10T02:39:50.461Z,88.10
2018-09-10T02:42:54.690Z,87.91
2018-09-10T02:45:58.900Z,88.57
2018-09-10T02:49:03.092Z,88.89
2018-09-10T02:52:07.310Z,89.23
2018-09-10T02:55:11.595Z,88.68
2018-09-10T02:58:15.856Z,89.48
2018-09-10T03:01:20.082Z,89.64
2018-09-10T03:04:24.297Z,89.55
2018-09-10T03:07:28.935Z,90.00
2018-09-10T03:10:33.178Z,89.58
2018-09-10T03:13:37.416Z,90.32
2018-09-10T03:16:41.636Z,90.19
2018-09-10T03:19:45.866Z,89.87
2018-09-10T03:22:50.089Z,90.37
2018-09-10T03:25:54.284Z,90.10
2018-09-10T03:28:58.506Z,89.95
2018-09-10T03:32:02.736Z,90.52
2018-09-10T03:35:06.949Z,90.83
2018-09-10T03:38:11.881Z,90.11
2018-09-10T03:41:16.095Z,90.99
2018-09-10T03:44:20.324Z,91.24
2018-09-10T03:47:24.556Z,91.12
2018-09-10T03:50:28.797Z,91.90
2018-09-10T03:53:32.997Z,92.17
2018-09-10T03:56:37.237Z,92.41
2018-09-10T03:59:41.449Z,93.03
2018-09-10T04:02:45.669Z,93.13
2018-09-10T04:05:49.848Z,93.60
2018-09-10T04:08:54.038Z,93.76
2018-09-10T04:11:58.232Z,94.05
2018-09-10T04:15:02.469Z,94.73
2018-09-10T04:18:06.704Z,94.79
2018-09-10T04:21:11.637Z,94.90
2018-09-10T04:24:15.841Z,95.53
2018-09-10T04:27:20.079Z,96.29
2018-09-10T04:30:24.338Z,96.93
2018-09-10T04:33:28.548Z,97.20
2018-09-10T04:36:32.781Z,96.50
2018-09-10T04:39:37.031Z,97.26
2018-09-10T04:42:41.301Z,97.20
2018-09-10T04:45:45.517Z,97.50
2018-09-10T04:48:49.753Z,97.57
2018-09-10T04:51:53.949Z,98.28
2018-09-10T04:54:58.181Z,98.77
2018-09-10T04:58:02.712Z,99.09
2018-09-10T05:01:06.945Z,98.58
2018-09-10T05:04:11.165Z,99.04
2018-09-10T05:07:15.388Z,99.99
2018-09-10T05:10:19.614Z,99.53
2018-09-10T05:13:23.894Z,100.00
2018-09-10T05:16:28.114Z,100.00
2018-09-10T05:19:33.790Z,100.00
2018-09-10T05:22:38.053Z,100.00
2018-09-10T05:25:42.301Z,100.00
2018-09-10T05:28:46.528Z,100.00
2018-09-10T05:31:50.797Z,100.00
2018-09-10T05:34:55.033Z,100.00
2018-09-10T05:37:59.288Z,100.00
2018-09-10T05:41:03.510Z,100.00
2018-09-10T05:44:07.793Z,100.00
2018-09-10T05:47:12.161Z,100.00
2018-09-10T05:50:16.393Z,100.00
2018-09-10T05:53:20.746Z,100.00
2018-09-10T05:56:24.904Z,100.00
2018-09-10T05:59:29.135Z,100.00
2018-09-10T06:02:33.399Z,100.00
2018-09-10T06:05:37.636Z,100.00
2018-09-10T06:08:41.924Z,100.00
2018-09-10T06:11:46.156Z,100.00
2018-09-10T06:14:50.384Z,100.00
2018-09-10T06:17:54.641Z,100.00
2018-09-10T06:20:58.873Z,100.00
2018-09-10T06:24:03.109Z,100.00
2018-09-10T06:27:07.353Z,100.00
2018-09-10T06:30:11.632Z,100.00
2018-09-10T06:33:15.885Z,100.00
2018-09-10T06:36:20.142Z,100.00
2018-09-10T06:39:24.364Z,100.00
2018-09-10T06:42:28.628Z,100.00
2018-09-10T06:45:32.849Z,100.00
2018-09-10T06:48:37.109Z,100.00
2018-09-10T06:51:41.352Z,100.00
2018-09-10T06:54:45.591Z,100.00
2018-09-10T06:57:49.877Z,100.00
2018-09-10T07:00:54.120Z,100.00
2018-09-10T07:03:58.340Z,100.00
2018-09-10T07:07:02.599Z,100.00
2018-09-10T07:10:07.561Z,100.00
2018-09-10T07:13:11.867Z,100.00
2018-09-10T07:16:16.054Z,100.00
2018-09-10T07:19:20.301Z,100.00
2018-09-10T07:22:24.512Z,100.00
2018-09-10T07:25:28.791Z,100.00
2018-09-10T07:28:33.012Z,100.00
2018-09-10T07:31:37.251Z,100.00
2018-09-10T07:34:41.503Z,100.00
2018-09-10T07:37:45.730Z,100.00
2018-09-10T07:40:49.957Z,100.00
2018-09-10T07:43:54.366Z,100.00
2018-09-10T07:46:58.634Z,100.00
2018-09-10T07:50:02.896Z,100.00
2018-09-10T07:53:07.133Z,100.00
2018-09-10T07:56:11.368Z,100.00
2018-09-10T07:59:15.625Z,100.00
2018-09-10T08:02:19.913Z,100.00
2018-09-10T08:05:24.156Z,100.00
2018-09-10T08:08:28.370Z,100.00
2018-09-10T08:11:32.585Z,100.00
2018-09-10T08:14:36.849Z,100.00
2018-09-10T08:17:41.092Z,100.00
2018-09-10T08:20:45.312Z,100.00
2018-09-10T08:23:49.569Z,100.00
2018-09-10T08:26:53.777Z,96.68
2018-09-10T08:29:59.038Z,97.25
2018-09-10T08:33:03.274Z,95.53
2018-09-10T08:36:07.569Z,94.32
2018-09-10T08:39:11.795Z,93.70
2018-09-10T08:42:16.049Z,91.12
2018-09-10T08:45:20.285Z,91.04
2018-09-10T08:48:24.586Z,90.85
2018-09-10T08:51:28.777Z,92.11
2018-09-10T08:54:33.189Z,91.06
2018-09-10T08:57:37.276Z,91.11
2018-09-10T09:00:41.518Z,90.83
2018-09-10T09:03:45.733Z,91.23
2018-09-10T09:06:50.019Z,91.25
2018-09-10T09:09:54.258Z,92.76
2018-09-10T09:12:58.510Z,91.57
2018-09-10T09:16:02.762Z,89.33
2018-09-10T09:19:06.974Z,89.71
2018-09-10T09:22:11.185Z,88.30
2018-09-10T09:25:15.405Z,90.41
2018-09-10T09:28:20.517Z,89.53
2018-09-10T09:31:24.738Z,86.42
2018-09-10T09:34:33.061Z,89.17
2018-09-10T09:37:42.577Z,90.56
2018-09-10T09:40:52.142Z,88.21
2018-09-10T09:44:01.757Z,87.75
2018-09-10T09:47:06.013Z,87.02
2018-09-10T09:50:10.231Z,80.92
2018-09-10T09:53:14.457Z,81.05
2018-09-10T09:56:18.661Z,81.27
2018-09-10T09:59:22.886Z,80.71
2018-09-10T10:02:32.317Z,81.67
2018-09-10T10:05:36.516Z,81.82
2018-09-10T10:08:40.747Z,80.47
2018-09-10T10:11:44.974Z,82.73
2018-09-10T10:14:49.220Z,80.98
2018-09-10T10:17:53.418Z,78.69
2018-09-10T10:20:57.637Z,74.22
2018-09-10T10:24:01.869Z,74.13
2018-09-10T10:27:06.096Z,72.69
2018-09-10T10:30:10.327Z,71.58
2018-09-10T10:33:14.557Z,74.45
2018-09-10T10:36:18.778Z,71.29
2018-09-10T10:39:23.063Z,70.69
2018-09-10T10:42:27.233Z,72.39
2018-09-10T10:45:31.428Z,71.85
2018-09-10T10:48:35.648Z,68.61
2018-09-10T10:51:39.837Z,70.72
2018-09-10T10:54:44.065Z,70.70
2018-09-10T10:57:48.264Z,71.38
2018-09-10T11:00:52.486Z,69.78
2018-09-10T11:03:56.693Z,67.78
2018-09-10T11:07:00.904Z,70.41
2018-09-10T11:10:05.461Z,71.04
2018-09-10T11:13:09.693Z,72.31
2018-09-10T11:16:13.908Z,71.70
2018-09-10T11:19:18.150Z,71.82
2018-09-10T11:22:22.374Z,70.29
2018-09-10T11:25:26.642Z,68.56
2018-09-10T11:28:30.845Z,69.78
2018-09-10T11:31:35.058Z,70.41
2018-09-10T11:34:39.319Z,70.19
2018-09-10T11:37:43.533Z,69.87
2018-09-10T11:40:47.768Z,73.44
2018-09-10T11:43:51.984Z,74.71
2018-09-10T11:46:56.205Z,73.96
2018-09-10T11:50:00.418Z,75.19
2018-09-10T11:53:04.650Z,76.30
2018-09-10T11:56:08.930Z,74.80
2018-09-10T11:59:13.134Z,73.66
2018-09-10T12:02:17.345Z,75.18
2018-09-10T12:05:21.584Z,74.05
2018-09-10T12:08:25.812Z,71.06
2018-09-10T12:11:30.041Z,71.60
2018-09-10T12:14:34.424Z,71.34
2018-09-10T12:17:38.649Z,67.30
2018-09-10T12:20:42.874Z,69.62
2018-09-10T12:23:47.090Z,69.20
2018-09-10T12:26:51.345Z,67.57
2018-09-10T12:29:55.553Z,69.03
2018-09-10T12:32:59.777Z,69.69
2018-09-10T12:36:04.126Z,70.71
2018-09-10T12:39:10.417Z,69.88
2018-09-10T12:42:14.620Z,72.19
2018-09-10T12:45:18.874Z,72.65
2018-09-10T12:48:23.104Z,71.09
2018-09-10T12:51:27.332Z,70.06
2018-09-10T12:54:31.541Z,70.93
2018-09-10T12:57:35.792Z,73.16
2018-09-10T13:00:40.022Z,74.65
2018-09-10T13:03:44.245Z,70.42
2018-09-10T13:06:48.468Z,68.83
2018-09-10T13:09:52.688Z,71.86
2018-09-10T13:12:56.915Z,70.56
2018-09-10T13:16:01.178Z,70.11
2018-09-10T13:19:05.511Z,70.52
2018-09-10T13:22:09.792Z,69.95
2018-09-10T13:25:13.996Z,68.74
2018-09-10T13:28:18.233Z,68.64
2018-09-10T13:31:22.564Z,70.31
2018-09-10T13:34:26.812Z,69.63
2018-09-10T13:37:31.054Z,70.37
2018-09-10T13:40:35.275Z,70.50
2018-09-10T13:43:39.575Z,71.50
2018-09-10T13:46:43.853Z,72.19
2018-09-10T13:49:48.085Z,72.84
2018-09-10T13:52:52.277Z,71.17
2018-09-10T13:55:56.487Z,71.32
2018-09-10T13:59:00.709Z,69.20
2018-09-10T14:02:04.920Z,69.99
2018-09-10T14:05:09.169Z,70.59
2018-09-10T14:08:13.386Z,70.65
2018-09-10T14:11:17.720Z,71.32
2018-09-10T14:14:21.919Z,71.88
2018-09-10T14:17:26.157Z,71.74
2018-09-10T14:20:30.393Z,72.87
2018-09-10T14:23:34.649Z,73.62
2018-09-10T14:26:38.883Z,73.15
2018-09-10T14:29:43.089Z,74.67
2018-09-10T14:32:47.309Z,73.73
2018-09-10T14:35:51.556Z,74.37
2018-09-10T14:38:55.788Z,76.34
2018-09-10T14:42:00.085Z,76.83
2018-09-10T14:45:04.326Z,77.07
2018-09-10T14:48:08.548Z,76.25
2018-09-10T14:51:12.788Z,77.11
2018-09-10T14:54:17.002Z,77.70
2018-09-10T14:57:21.249Z,77.05
2018-09-10T15:00:26.348Z,78.68
2018-09-10T15:03:30.575Z,77.87
2018-09-10T15:06:34.829Z,78.45
2018-09-10T15:09:39.030Z,77.19
2018-09-10T15:12:43.237Z,77.52
2018-09-10T15:15:47.520Z,77.51
2018-09-10T15:18:51.825Z,77.28
2018-09-10T15:21:55.990Z,76.47
2018-09-10T15:25:00.201Z,76.79
2018-09-10T15:28:04.426Z,76.38
2018-09-10T15:31:08.656Z,76.79
2018-09-10T15:34:12.880Z,75.67
2018-09-10T15:37:17.181Z,75.45
2018-09-10T15:40:21.416Z,75.69
2018-09-10T15:43:25.626Z,75.89
2018-09-10T15:46:29.925Z,74.90
2018-09-10T15:49:34.128Z,74.66
2018-09-10T15:52:38.337Z,74.96
2018-09-10T15:55:42.532Z,75.59
2018-09-10T15:58:46.764Z,75.90
2018-09-10T16:01:50.981Z,76.14
2018-09-10T16:04:55.238Z,74.84
2018-09-10T16:07:59.472Z,75.97
2018-09-10T16:11:03.676Z,76.80
2018-09-10T16:14:07.917Z,77.88
2018-09-10T16:17:12.141Z,78.83
2018-09-10T16:20:16.349Z,78.75
2018-09-10T16:23:20.576Z,79.08
2018-09-10T16:26:24.801Z,78.94
2018-09-10T16:29:29.048Z,80.10
2018-09-10T16:32:33.257Z,79.60
2018-09-10T16:35:37.492Z,80.30
2018-09-10T16:38:41.702Z,80.56
2018-09-10T16:41:45.933Z,80.13
2018-09-10T16:44:50.161Z,79.45
2018-09-10T16:47:54.364Z,80.52
2018-09-10T16:50:58.599Z,80.92
2018-09-10T16:54:02.900Z,79.97
2018-09-10T16:57:07.080Z,80.81
2018-09-10T17:00:11.327Z,80.44
2018-09-10T17:03:15.552Z,80.34
2018-09-10T17:06:19.789Z,80.17
2018-09-10T17:09:23.976Z,80.79
2018-09-10T17:12:28.199Z,80.38
2018-09-10T17:15:32.391Z,80.87
2018-09-10T17:18:36.610Z,81.82
2018-09-10T17:21:40.808Z,81.99
2018-09-10T17:24:45.044Z,81.48
2018-09-10T17:27:49.237Z,81.92
2018-09-10T17:30:53.501Z,82.39
2018-09-10T17:33:57.692Z,81.94
2018-09-10T17:37:01.902Z,82.75
2018-09-10T17:40:06.169Z,82.55
2018-09-10T17:43:10.561Z,83.63
2018-09-10T17:46:15.337Z,84.43
2018-09-10T17:49:19.540Z,84.26
2018-09-10T17:52:23.717Z,84.91
2018-09-10T17:55:27.942Z,85.75
2018-09-10T17:58:32.146Z,86.02
2018-09-10T18:01:36.353Z,86.15
2018-09-10T18:04:40.589Z,86.55
2018-09-10T18:07:44.769Z,87.38
2018-09-10T18:10:48.981Z,88.16
2018-09-10T18:13:53.191Z,88.60
2018-09-10T18:16:57.409Z,88.59
2018-09-10T18:20:01.626Z,89.21
2018-09-10T18:23:05.848Z,89.67
2018-09-10T18:26:10.073Z,89.53
2018-09-10T18:29:14.309Z,89.94
2018-09-10T18:32:18.517Z,90.03
2018-09-10T18:35:22.722Z,91.09
2018-09-10T18:38:26.937Z,91.16
2018-09-10T18:41:31.142Z,91.44
2018-09-10T18:44:35.356Z,91.26
2018-09-10T18:47:39.561Z,91.41
2018-09-10T18:50:43.770Z,91.50
2018-09-10T18:53:47.998Z,92.71
2018-09-10T18:56:52.200Z,92.78
2018-09-10T18:59:56.448Z,92.99
2018-09-10T19:03:00.659Z,93.96
2018-09-10T19:06:04.897Z,93.71
2018-09-10T19:09:11.051Z,94.59
2018-09-10T19:12:15.261Z,94.31
2018-09-10T19:15:19.481Z,94.37
2018-09-10T19:18:27.768Z,94.26
2018-09-10T19:21:31.993Z,93.42
2018-09-10T19:24:36.233Z,93.65
2018-09-10T19:27:40.455Z,93.35
2018-09-10T19:30:44.664Z,93.52
2018-09-10T19:33:48.911Z,93.15
2018-09-10T19:36:53.100Z,93.97
2018-09-10T19:39:57.308Z,94.05
2018-09-10T19:43:01.533Z,94.70
2018-09-10T19:46:05.785Z,94.13
2018-09-10T19:49:09.988Z,95.11
2018-09-10T19:52:14.223Z,95.48
2018-09-10T19:55:18.416Z,95.15
2018-09-10T19:58:22.615Z,95.33
2018-09-10T20:01:26.833Z,95.39
2018-09-10T20:04:31.056Z,96.46
2018-09-10T20:07:35.289Z,96.69
2018-09-10T20:10:39.504Z,96.17
2018-09-10T20:13:43.707Z,96.62
2018-09-10T20:16:47.897Z,96.89
2018-09-10T20:19:52.110Z,96.78
2018-09-10T20:22:56.288Z,97.56
2018-09-10T20:26:00.600Z,97.03
2018-09-10T20:29:04.801Z,97.06
2018-09-10T20:32:09.350Z,97.30
2018-09-10T20:35:13.670Z,97.60
2018-09-10T20:38:18.498Z,98.17
2018-09-10T20:41:22.687Z,97.96
2018-09-10T20:44:26.924Z,98.80
2018-09-10T20:47:31.156Z,99.04
2018-09-10T20:50:35.404Z,98.84
2018-09-10T20:53:39.615Z,98.93
2018-09-10T20:56:43.824Z,99.05
2018-09-10T20:59:48.037Z,98.72
2018-09-10T21:02:52.253Z,99.36
2018-09-10T21:05:56.459Z,99.10
2018-09-10T21:09:00.677Z,99.26
2018-09-10T21:12:04.971Z,99.68
2018-09-10T21:15:09.195Z,100.00
2018-09-10T21:18:13.433Z,100.00
2018-09-10T21:21:17.641Z,100.00
2018-09-10T21:24:21.888Z,100.00
2018-09-10T21:27:26.106Z,100.00
2018-09-10T21:30:30.324Z,100.00
2018-09-10T21:33:34.533Z,100.00
2018-09-10T21:36:38.783Z,100.00
2018-09-10T21:39:43.021Z,100.00
2018-09-10T21:42:47.257Z,100.00
2018-09-10T21:45:51.508Z,100.00
2018-09-10T21:48:55.743Z,100.00
2018-09-10T21:51:59.968Z,100.00
2018-09-10T21:55:04.245Z,100.00
2018-09-10T21:58:08.504Z,100.00
2018-09-10T22:01:12.741Z,100.00
2018-09-10T22:04:16.964Z,100.00
2018-09-10T22:07:21.177Z,100.00
2018-09-10T22:10:25.427Z,100.00
2018-09-10T22:13:29.626Z,100.00
2018-09-10T22:16:33.859Z,100.00
2018-09-10T22:19:38.069Z,100.00
2018-09-10T22:22:42.498Z,100.00
2018-09-10T22:25:46.733Z,100.00
2018-09-10T22:28:51.035Z,100.00
2018-09-10T22:31:55.224Z,100.00
2018-09-10T22:34:59.448Z,100.00
2018-09-10T22:38:03.676Z,100.00
2018-09-10T22:41:07.925Z,100.00
2018-09-10T22:44:12.144Z,100.00
2018-09-10T22:47:16.364Z,100.00
2018-09-10T22:50:20.605Z,100.00
2018-09-10T22:53:24.780Z,100.00
2018-09-10T22:56:28.986Z,100.00
2018-09-10T22:59:33.237Z,100.00
2018-09-10T23:02:37.463Z,100.00
2018-09-10T23:05:41.669Z,100.00
2018-09-10T23:08:45.948Z,100.00
2018-09-10T23:11:50.118Z,100.00
2018-09-10T23:14:54.355Z,100.00
2018-09-10T23:17:58.593Z,100.00
2018-09-10T23:21:02.816Z,100.00
2018-09-10T23:24:07.086Z,100.00
2018-09-10T23:27:11.326Z,100.00
2018-09-10T23:30:15.554Z,100.00
2018-09-10T23:33:19.780Z,100.00
2018-09-10T23:36:24.049Z,100.00
2018-09-10T23:39:28.253Z,100.00
2018-09-10T23:42:32.498Z,100.00
2018-09-10T23:45:36.711Z,100.00
2018-09-10T23:48:40.950Z,100.00
2018-09-10T23:51:45.197Z,100.00
2018-09-10T23:54:49.457Z,100.00
2018-09-10T23:57:53.657Z,100.00
